createdAt,value
2022-08-21T00:03:15.193Z,22.13
2022-08-21T00:08:18.119Z,18.10
2022-08-21T00:13:22.943Z,19.33
2022-08-21T00:18:25.742Z,16.70
2022-08-21T00:23:28.564Z,16.30
2022-08-21T00:28:32.831Z,21.65
2022-08-21T00:33:35.611Z,23.75
2022-08-21T00:38:38.540Z,21.40
2022-08-21T00:43:42.595Z,22.25
2022-08-21T00:48:45.553Z,23.33
2022-08-21T00:53:53.670Z,22.58
2022-08-21T00:58:59.668Z,22.50
2022-08-21T01:04:02.769Z,21.15
2022-08-21T01:09:05.685Z,23.90
2022-08-21T01:14:11.282Z,19.00
2022-08-21T01:19:15.571Z,21.63
2022-08-21T01:24:19.777Z,21.05
2022-08-21T01:29:32.519Z,23.25
2022-08-21T01:34:38.146Z,21.60
2022-08-21T01:39:45.171Z,24.70
2022-08-21T01:44:48.174Z,25.35
2022-08-21T01:49:52.040Z,20.63
2022-08-21T01:54:56.043Z,23.60
2022-08-21T01:59:59.094Z,25.38
2022-08-21T02:05:02.058Z,25.25
2022-08-21T02:10:07.773Z,22.02
2022-08-21T02:15:11.371Z,23.05
2022-08-21T02:20:18.860Z,21.40
2022-08-21T02:25:25.043Z,19.48
2022-08-21T02:30:31.272Z,21.10
2022-08-21T02:35:34.044Z,21.10
2022-08-21T02:40:40.344Z,20.60
2022-08-21T02:45:48.658Z,21.10
2022-08-21T02:50:57.017Z,18.35
2022-08-21T02:56:03.850Z,20.98
2022-08-21T03:01:10.617Z,19.77
2022-08-21T03:06:16.070Z,18.17
2022-08-21T03:11:21.768Z,18.42
2022-08-21T03:16:24.630Z,20.15
2022-08-21T03:21:27.476Z,20.08
2022-08-21T03:26:31.539Z,21.75
2022-08-21T03:31:35.223Z,21.67
2022-08-21T03:36:38.225Z,21.98
2022-08-21T03:41:42.386Z,24.42
2022-08-21T03:46:45.327Z,22.80
2022-08-21T03:51:48.085Z,21.63
2022-08-21T03:57:03.477Z,22.75
2022-08-21T04:02:08.996Z,20.70
2022-08-21T04:07:12.223Z,22.85
2022-08-21T04:12:16.339Z,21.65
2022-08-21T04:17:22.472Z,22.48
2022-08-21T04:22:25.679Z,23.00
2022-08-21T04:27:29.815Z,22.27
2022-08-21T04:32:32.862Z,24.65
2022-08-21T04:37:35.875Z,24.40
2022-08-21T04:42:47.916Z,23.83
2022-08-21T04:47:52.475Z,23.10
2022-08-21T04:52:56.373Z,22.40
2022-08-21T05:03:07.671Z,20.70
2022-08-21T05:08:14.374Z,23.67
2022-08-21T05:13:19.196Z,18.45
2022-08-21T05:18:21.878Z,19.75
2022-08-21T05:23:25.981Z,19.23
2022-08-21T05:28:33.426Z,15.55
2022-08-21T05:33:37.191Z,17.05
2022-08-21T05:38:44.580Z,15.98
2022-08-21T05:43:49.607Z,16.02
2022-08-21T05:48:52.286Z,17.17
2022-08-21T05:53:54.911Z,12.17
2022-08-21T05:58:59.155Z,19.63
2022-08-21T06:04:01.851Z,14.57
2022-08-21T06:09:06.726Z,13.57
2022-08-21T06:14:10.921Z,17.00
2022-08-21T06:19:14.420Z,14.48
2022-08-21T06:24:17.345Z,15.82
2022-08-21T06:29:21.974Z,14.50
2022-08-21T06:34:24.737Z,13.27
2022-08-21T06:39:30.759Z,14.95
2022-08-21T06:44:36.445Z,10.95
2022-08-21T06:49:39.360Z,8.27
2022-08-21T06:54:43.732Z,9.05
2022-08-21T06:59:47.997Z,7.75
2022-08-21T07:04:51.946Z,10.63
2022-08-21T07:09:54.625Z,8.02
2022-08-21T07:14:59.363Z,9.98
2022-08-21T07:20:02.419Z,9.60
2022-08-21T07:25:05.906Z,9.65
2022-08-21T07:30:11.560Z,7.97
2022-08-21T07:35:14.455Z,7.32
2022-08-21T07:40:20.332Z,12.02
2022-08-21T07:45:27.373Z,9.25
2022-08-21T07:50:30.071Z,8.05
2022-08-21T07:55:32.861Z,9.30
2022-08-21T08:00:36.945Z,8.90
2022-08-21T08:05:40.336Z,12.13
2022-08-21T08:10:43.765Z,7.60
2022-08-21T08:15:48.337Z,7.10
2022-08-21T08:20:51.525Z,9.45
2022-08-21T08:25:54.600Z,9.68
2022-08-21T08:30:58.680Z,10.13
2022-08-21T08:36:07.870Z,5.63
2022-08-21T08:41:15.378Z,6.85
2022-08-21T08:46:25.356Z,8.18
2022-08-21T08:51:35.652Z,8.18
2022-08-21T08:56:38.435Z,8.07
2022-08-21T09:01:43.182Z,6.97
2022-08-21T09:06:57.983Z,6.60
2022-08-21T09:12:06.897Z,6.78
2022-08-21T09:17:24.664Z,5.93
2022-08-21T09:22:39.343Z,5.70
2022-08-21T09:27:41.979Z,6.60
2022-08-21T09:32:46.017Z,6.80
2022-08-21T09:37:52.807Z,6.35
2022-08-21T09:42:57.913Z,7.18
2022-08-21T09:48:12.361Z,7.30
2022-08-21T09:53:21.494Z,5.45
2022-08-21T09:58:34.982Z,4.55
2022-08-21T10:03:39.100Z,4.55
2022-08-21T10:08:42.930Z,3.80
2022-08-21T10:13:56.049Z,7.82
2022-08-21T10:19:10.158Z,8.13
2022-08-21T10:24:31.187Z,5.60
2022-08-21T10:29:45.939Z,5.70
2022-08-21T10:34:56.957Z,4.50
2022-08-21T10:40:10.979Z,4.13
2022-08-21T10:45:33.862Z,6.47
2022-08-21T10:50:44.165Z,4.70
2022-08-21T10:55:54.282Z,7.60
2022-08-21T11:01:01.770Z,6.50
2022-08-21T11:06:13.148Z,6.28
2022-08-21T11:11:22.623Z,6.13
2022-08-21T11:16:30.890Z,4.88
2022-08-21T11:21:40.738Z,4.22
2022-08-21T11:26:46.647Z,7.10
2022-08-21T11:32:06.015Z,4.35
2022-08-21T11:37:19.707Z,6.85
2022-08-21T11:42:34.664Z,7.35
2022-08-21T11:47:53.700Z,5.22
2022-08-21T11:53:01.455Z,6.50
2022-08-21T11:58:09.794Z,3.40
2022-08-21T12:03:17.631Z,5.45
2022-08-21T12:08:32.200Z,6.45
2022-08-21T12:13:40.169Z,5.72
2022-08-21T12:18:45.189Z,2.72
2022-08-21T12:23:52.066Z,5.90
2022-08-21T12:29:12.988Z,7.05
2022-08-21T12:34:17.537Z,4.75
2022-08-21T12:39:27.172Z,5.57
2022-08-21T12:44:37.483Z,4.40
2022-08-21T12:49:53.836Z,7.72
2022-08-21T12:54:57.904Z,3.33
2022-08-21T13:00:04.086Z,4.80
2022-08-21T13:05:10.725Z,6.75
2022-08-21T13:10:22.787Z,2.58
2022-08-21T13:15:33.366Z,2.17
2022-08-21T13:20:40.185Z,5.28
2022-08-21T13:25:44.087Z,4.53
2022-08-21T13:30:50.745Z,3.38
2022-08-21T13:36:01.900Z,4.88
2022-08-21T13:41:10.636Z,2.08
2022-08-21T13:46:16.159Z,6.30
2022-08-21T13:51:20.010Z,3.58
2022-08-21T13:56:29.398Z,5.25
2022-08-21T14:01:35.433Z,3.72
2022-08-21T14:06:40.277Z,2.67
2022-08-21T14:11:44.388Z,3.22
2022-08-21T14:16:54.577Z,3.28
2022-08-21T14:21:57.387Z,3.35
2022-08-21T14:27:05.975Z,4.63
2022-08-21T14:32:16.628Z,5.60
2022-08-21T14:37:28.059Z,6.70
2022-08-21T14:42:32.453Z,2.78
2022-08-21T14:47:35.157Z,4.65
2022-08-21T14:52:38.149Z,2.90
2022-08-21T14:57:44.381Z,5.82
2022-08-21T15:02:47.623Z,2.72
2022-08-21T15:07:52.068Z,4.13
2022-08-21T15:12:56.196Z,3.42
2022-08-21T15:17:58.799Z,7.57
2022-08-21T15:23:02.080Z,4.15
2022-08-21T15:28:06.150Z,7.15
2022-08-21T15:33:09.099Z,4.18
2022-08-21T15:38:14.704Z,2.78
2022-08-21T15:43:30.232Z,4.28
2022-08-21T15:48:33.306Z,5.00
2022-08-21T15:53:39.461Z,4.53
2022-08-21T15:58:43.499Z,7.20
2022-08-21T16:03:50.872Z,7.80
2022-08-21T16:08:56.484Z,6.32
2022-08-21T16:14:00.752Z,11.32
2022-08-21T16:19:06.936Z,5.97
2022-08-21T16:24:10.025Z,9.00
2022-08-21T16:29:14.039Z,6.45
2022-08-21T16:34:21.164Z,6.43
2022-08-21T16:39:23.936Z,9.23
2022-08-21T16:44:31.185Z,6.60
2022-08-21T16:49:33.866Z,7.47
2022-08-21T16:54:36.547Z,6.63
2022-08-21T16:59:41.114Z,4.55
2022-08-21T17:04:43.716Z,5.78
2022-08-21T17:14:50.494Z,2.83
2022-08-21T17:19:53.168Z,5.13
2022-08-21T17:30:00.166Z,4.93
2022-08-21T17:35:03.006Z,5.40
2022-08-21T17:40:07.975Z,3.42
2022-08-21T17:45:14.920Z,4.13
2022-08-21T17:50:22.529Z,4.60
2022-08-21T17:55:28.267Z,3.40
2022-08-21T18:00:33.095Z,4.78
2022-08-21T18:05:35.801Z,3.88
2022-08-21T18:15:46.944Z,4.90
2022-08-21T18:20:50.251Z,6.30
2022-08-21T18:25:57.423Z,4.38
2022-08-21T18:31:02.034Z,5.10
2022-08-21T18:36:05.276Z,3.33
2022-08-21T18:41:10.425Z,3.78
2022-08-21T18:46:15.014Z,2.95
2022-08-21T18:51:17.645Z,4.15
2022-08-21T18:56:21.849Z,18.00
2022-08-21T19:01:26.745Z,6.40
2022-08-21T19:06:29.536Z,5.22
2022-08-21T19:11:34.080Z,4.97
2022-08-21T19:16:42.223Z,6.18
2022-08-21T19:21:50.265Z,5.75
2022-08-21T19:26:55.986Z,4.07
2022-08-21T19:32:00.394Z,6.45
2022-08-21T19:37:03.892Z,7.05
2022-08-21T19:42:10.237Z,4.97
2022-08-21T19:47:19.089Z,5.10
2022-08-21T19:52:21.913Z,4.47
2022-08-21T19:57:25.268Z,3.75
2022-08-21T20:02:29.585Z,6.47
2022-08-21T20:07:33.201Z,6.22
2022-08-21T20:12:36.415Z,3.85
2022-08-21T20:17:41.903Z,4.00
2022-08-21T20:22:45.742Z,6.25
2022-08-21T20:27:48.375Z,4.28
2022-08-21T20:32:52.687Z,7.43
2022-08-21T20:43:20.480Z,5.53
2022-08-21T20:48:28.200Z,5.25
2022-08-21T20:53:42.882Z,5.75
2022-08-21T20:58:56.945Z,4.28
2022-08-21T21:04:09.975Z,10.10
2022-08-21T21:09:34.018Z,7.25
2022-08-21T21:14:46.024Z,6.03
2022-08-21T21:19:55.194Z,7.60
2022-08-21T21:25:02.095Z,7.07
2022-08-21T21:35:41.532Z,6.93
2022-08-21T21:41:00.729Z,11.18
2022-08-21T21:46:15.667Z,8.00
2022-08-21T21:51:27.534Z,9.38
2022-08-21T21:56:45.697Z,9.27
2022-08-21T22:07:29.906Z,5.43
2022-08-21T22:13:00.627Z,7.50
2022-08-21T22:18:11.923Z,9.73
2022-08-21T22:23:19.715Z,3.65
2022-08-21T22:28:26.269Z,5.07
2022-08-21T22:33:30.367Z,9.23
2022-08-21T22:38:37.121Z,7.63
2022-08-21T22:43:54.904Z,5.18
2022-08-21T22:49:04.555Z,6.78
2022-08-21T22:54:21.619Z,9.55
2022-08-21T22:59:29.368Z,4.78
2022-08-21T23:04:32.177Z,3.97
2022-08-21T23:09:46.146Z,6.10
2022-08-21T23:14:54.798Z,9.77
2022-08-21T23:20:03.741Z,8.93
2022-08-21T23:25:23.679Z,7.47
2022-08-21T23:30:43.070Z,8.23
2022-08-21T23:36:09.097Z,8.60
2022-08-21T23:46:58.713Z,6.78
2022-08-21T23:52:12.576Z,6.95
